Time;durP1;ratioP1;P1;durP2;ratioP2;P2;SDS_P1;SDS_P2;PMS_P1;PMS_P2;Temp;Humidity;BMP_temperature;BMP_pressure;BME280_temperature;BME280_humidity;BME280_pressure;Samples;Min_cycle;Max_cycle;Signal;HPM_P1;HPM_P2
2022/12/02 00:01:37;;;;;;;9.65;7.97;;;17.30;65.90;;;;;;4994162;28;20177;-71
2022/12/02 00:04:20;;;;;;;8.98;7.90;;;17.30;65.80;;;;;;4992937;28;20255;-70
2022/12/02 00:06:45;;;;;;;10.18;8.07;;;17.30;65.80;;;;;;4993012;28;20263;-70
2022/12/02 00:09:28;;;;;;;9.13;8.18;;;17.30;65.70;;;;;;4992627;28;20296;-69
2022/12/02 00:11:54;;;;;;;8.52;7.55;;;17.30;65.80;;;;;;5009247;28;20189;-70
2022/12/02 00:14:28;;;;;;;10.05;7.60;;;17.30;65.90;;;;;;4992781;28;20213;-70
2022/12/02 00:16:55;;;;;;;9.32;8.05;;;17.30;65.80;;;;;;4993165;28;20200;-70
2022/12/02 00:19:22;;;;;;;9.15;7.88;;;17.30;65.80;;;;;;5009295;28;20181;-70
2022/12/02 00:21:50;;;;;;;8.82;7.88;;;17.30;65.80;;;;;;5009315;28;20221;-70
2022/12/02 00:24:17;;;;;;;8.15;7.30;;;17.30;65.80;;;;;;4976402;28;20208;-70
2022/12/02 00:26:43;;;;;;;8.70;7.45;;;17.30;65.70;;;;;;5009005;28;20201;-70
2022/12/02 00:29:09;;;;;;;7.82;6.90;;;17.30;65.80;;;;;;4992458;28;20220;-70
2022/12/02 00:31:35;;;;;;;8.93;7.32;;;17.30;65.80;;;;;;5009239;28;20195;-71
2022/12/02 00:34:02;;;;;;;8.13;7.03;;;17.30;65.80;;;;;;5009036;28;20207;-71
2022/12/02 00:36:29;;;;;;;8.27;7.38;;;17.30;65.80;;;;;;5008967;28;20199;-70
2022/12/02 00:38:56;;;;;;;8.05;7.25;;;17.30;65.70;;;;;;4992272;28;20660;-71
2022/12/02 00:41:23;;;;;;;8.50;7.03;;;17.30;65.70;;;;;;4991946;28;20193;-70
2022/12/02 00:46:36;;;;;;;7.70;6.68;;;17.30;65.70;;;;;;4992372;28;20184;-70
2022/12/02 00:49:13;;;;;;;8.05;7.15;;;17.30;65.70;;;;;;5008645;28;20209;-70
2022/12/02 00:51:41;;;;;;;7.47;6.35;;;17.30;65.70;;;;;;5024456;28;20672;-70
2022/12/02 00:54:09;;;;;;;7.15;6.45;;;17.30;65.70;;;;;;5008635;28;20227;-70
2022/12/02 00:56:36;;;;;;;7.32;6.07;;;17.30;65.80;;;;;;4992012;28;20228;-71
2022/12/02 00:59:02;;;;;;;7.63;6.82;;;17.30;65.70;;;;;;5008141;28;20212;-70
2022/12/02 01:01:29;;;;;;;7.30;6.53;;;17.30;65.70;;;;;;5008365;28;20243;-70
2022/12/02 01:03:55;;;;;;;7.55;6.65;;;17.30;65.70;;;;;;4992017;28;20200;-70
2022/12/02 01:06:22;;;;;;;6.97;6.28;;;17.30;65.70;;;;;;5025106;28;20196;-70
2022/12/02 01:08:48;;;;;;;6.72;5.90;;;17.30;65.70;;;;;;5008301;28;20235;-70
2022/12/02 01:11:15;;;;;;;7.03;5.80;;;17.30;65.70;;;;;;5008540;28;20205;-70
2022/12/02 01:13:41;;;;;;;6.25;5.65;;;17.30;65.70;;;;;;5008040;28;20270;-70
2022/12/02 01:16:07;;;;;;;6.18;5.57;;;17.30;65.70;;;;;;4992113;28;20193;-70
2022/12/02 01:18:34;;;;;;;7.38;5.97;;;17.30;65.70;;;;;;5008612;28;20199;-70
2022/12/02 01:20:59;;;;;;;7.30;5.80;;;17.30;65.70;;;;;;4993003;28;20184;-70
2022/12/02 01:23:25;;;;;;;6.50;5.85;;;17.30;65.70;;;;;;5008466;28;20278;-70
2022/12/02 01:25:51;;;;;;;6.45;5.85;;;17.30;65.60;;;;;;4992143;28;20215;-70
2022/12/02 01:28:17;;;;;;;6.72;5.82;;;17.30;65.60;;;;;;5008189;28;20201;-70
2022/12/02 01:30:43;;;;;;;5.85;5.15;;;17.30;65.60;;;;;;4975300;28;20270;-70
2022/12/02 01:33:09;;;;;;;6.25;5.65;;;17.30;65.70;;;;;;5007932;28;20205;-70
2022/12/02 01:35:34;;;;;;;6.20;5.35;;;17.30;65.70;;;;;;5008324;28;20196;-70
2022/12/02 01:38:00;;;;;;;6.47;5.75;;;17.30;65.60;;;;;;4992077;28;20234;-70
2022/12/02 01:40:28;;;;;;;6.22;5.57;;;17.30;65.60;;;;;;4991543;28;20272;-70
2022/12/02 01:42:54;;;;;;;5.90;5.28;;;17.30;65.60;;;;;;4993006;28;20331;-70
2022/12/02 01:45:20;;;;;;;6.28;5.68;;;17.30;65.70;;;;;;5007931;28;20279;-70
2022/12/02 01:47:46;;;;;;;6.00;5.40;;;17.30;65.60;;;;;;5024802;28;20528;-70
2022/12/02 01:50:15;;;;;;;6.28;5.20;;;17.30;65.70;;;;;;4992794;28;20255;-70
2022/12/02 01:52:42;;;;;;;6.95;5.38;;;17.30;65.70;;;;;;5024047;28;20268;-70
2022/12/02 01:55:17;;;;;;;5.38;4.70;;;17.30;65.70;;;;;;5008226;28;20637;-69
2022/12/02 01:57:44;;;;;;;6.40;5.15;;;17.30;65.70;;;;;;4992743;28;20161;-70
2022/12/02 02:00:12;;;;;;;5.50;5.00;;;17.30;65.70;;;;;;5024237;28;20361;-71
2022/12/02 02:02:40;;;;;;;6.38;5.40;;;17.30;65.70;;;;;;5025637;28;20260;-70
2022/12/02 02:05:22;;;;;;;5.90;5.20;;;17.30;65.70;;;;;;5011904;28;20195;-70
2022/12/02 02:07:52;;;;;;;5.65;5.00;;;17.30;65.70;;;;;;5028411;28;20204;-70
2022/12/02 02:10:22;;;;;;;5.60;5.10;;;17.30;65.60;;;;;;4994929;28;20270;-70
2022/12/02 02:12:51;;;;;;;5.80;5.20;;;17.30;65.60;;;;;;4995276;28;20220;-70
2022/12/02 02:15:18;;;;;;;5.25;4.75;;;17.30;65.50;;;;;;5011523;28;20180;-70
2022/12/02 02:17:45;;;;;;;5.38;4.88;;;17.30;65.50;;;;;;5028135;28;20193;-70
2022/12/02 02:20:18;;;;;;;5.40;4.90;;;17.30;65.50;;;;;;5027659;28;20185;-70
2022/12/02 02:23:05;;;;;;;6.07;5.47;;;17.30;65.50;;;;;;5028155;28;20208;-70
2022/12/02 02:25:40;;;;;;;5.80;5.10;;;17.30;65.50;;;;;;5027949;28;20235;-70
2022/12/02 02:28:08;;;;;;;5.70;5.00;;;17.30;65.60;;;;;;4995258;28;20188;-70
2022/12/02 02:30:35;;;;;;;4.90;4.40;;;17.30;65.60;;;;;;5010684;28;20730;-70
2022/12/02 02:33:06;;;;;;;5.40;4.85;;;17.30;65.60;;;;;;5010966;28;20631;-70
2022/12/02 02:35:36;;;;;;;5.10;4.60;;;17.30;65.60;;;;;;5027607;28;20191;-70
2022/12/02 02:38:06;;;;;;;5.32;4.70;;;17.30;65.50;;;;;;5027598;28;20212;-70
2022/12/02 02:40:33;;;;;;;5.43;4.90;;;17.30;65.50;;;;;;5027374;28;20216;-70
2022/12/02 02:43:01;;;;;;;4.45;4.05;;;17.30;65.50;;;;;;5011055;28;20239;-70
2022/12/02 02:45:32;;;;;;;5.60;4.85;;;17.30;65.50;;;;;;5027497;28;20184;-70
2022/12/02 02:48:04;;;;;;;5.00;4.50;;;17.40;65.70;;;;;;5027384;28;20200;-70
2022/12/02 02:50:32;;;;;;;5.03;4.53;;;17.30;65.50;;;;;;5027099;28;20233;-70
2022/12/02 02:53:00;;;;;;;5.65;5.10;;;17.30;65.50;;;;;;5027094;28;20269;-70
2022/12/02 02:55:27;;;;;;;5.28;4.55;;;17.30;65.50;;;;;;5027278;28;20191;-70
2022/12/02 02:57:54;;;;;;;5.03;4.47;;;17.30;65.50;;;;;;5027183;28;20185;-70
2022/12/02 03:00:22;;;;;;;5.10;4.60;;;17.30;65.50;;;;;;5026897;28;20213;-70
2022/12/02 03:02:53;;;;;;;5.28;4.78;;;17.30;65.50;;;;;;5026802;28;20271;-70
2022/12/02 03:05:21;;;;;;;5.25;4.75;;;17.30;65.50;;;;;;5027047;28;20181;-70
2022/12/02 03:07:48;;;;;;;5.18;4.68;;;17.30;65.50;;;;;;5010663;28;20224;-70
2022/12/02 03:10:14;;;;;;;4.53;4.03;;;17.30;65.50;;;;;;5026682;28;20205;-70
2022/12/02 03:12:40;;;;;;;5.38;4.88;;;17.30;65.50;;;;;;5053088;22;20213;-67
2022/12/02 03:15:08;;;;;;;4.35;3.95;;;17.30;65.50;;;;;;4959343;28;20209;-68
2022/12/02 03:17:35;;;;;;;4.63;4.20;;;17.30;65.50;;;;;;4977732;28;20191;-68
2022/12/02 03:20:01;;;;;;;4.55;4.15;;;17.30;65.40;;;;;;4977658;28;20722;-68
2022/12/02 03:22:31;;;;;;;5.28;4.78;;;17.30;65.40;;;;;;4994057;28;20852;-68
2022/12/02 03:24:57;;;;;;;4.80;4.30;;;17.30;65.40;;;;;;4956768;28;20221;-68
2022/12/02 03:27:23;;;;;;;4.53;4.13;;;17.30;65.50;;;;;;4958178;28;20577;-68
2022/12/02 03:29:50;;;;;;;4.75;4.30;;;17.30;65.40;;;;;;4958159;28;20250;-68
2022/12/02 03:32:17;;;;;;;4.75;4.25;;;17.30;65.30;;;;;;4958423;28;20251;-68
2022/12/02 03:34:43;;;;;;;4.57;4.18;;;17.30;65.40;;;;;;4958057;28;20248;-68
2022/12/02 03:37:10;;;;;;;4.20;3.90;;;17.30;65.40;;;;;;4957979;28;20563;-68
2022/12/02 03:39:36;;;;;;;4.47;4.07;;;17.40;65.50;;;;;;4973849;28;20194;-68
2022/12/02 03:42:03;;;;;;;4.40;4.00;;;17.30;65.30;;;;;;4975382;28;20177;-68
2022/12/02 03:44:29;;;;;;;4.85;4.35;;;17.30;65.40;;;;;;4974277;28;20213;-68
2022/12/02 03:46:55;;;;;;;4.20;3.80;;;17.30;65.40;;;;;;4975215;28;20177;-68
2022/12/02 03:49:21;;;;;;;4.35;3.95;;;17.30;65.40;;;;;;4973740;28;20213;-68
2022/12/02 03:51:48;;;;;;;4.30;3.90;;;17.30;65.50;;;;;;4957789;28;20193;-68
2022/12/02 03:54:14;;;;;;;4.70;4.30;;;17.30;65.50;;;;;;4973935;28;20315;-68
2022/12/02 03:56:41;;;;;;;4.55;4.15;;;17.30;65.50;;;;;;4973982;28;20268;-68
2022/12/02 03:59:10;;;;;;;4.25;3.85;;;17.40;65.50;;;;;;4973626;28;20190;-68
2022/12/02 04:01:36;;;;;;;4.50;4.10;;;17.30;65.40;;;;;;4957537;28;20224;-68
2022/12/02 04:04:02;;;;;;;4.63;4.22;;;17.30;65.40;;;;;;4957771;28;20280;-68
2022/12/02 04:06:28;;;;;;;5.72;4.30;;;17.30;65.40;;;;;;4957755;28;20282;-68
2022/12/02 04:08:53;;;;;;;4.68;4.28;;;17.30;65.30;;;;;;4973637;28;20290;-68
2022/12/02 04:11:19;;;;;;;4.53;4.13;;;17.30;65.40;;;;;;4973494;28;20676;-68
2022/12/02 04:13:45;;;;;;;4.57;4.18;;;17.30;65.40;;;;;;4957134;28;20221;-69
2022/12/02 04:16:10;;;;;;;5.03;4.53;;;17.40;65.40;;;;;;4957286;28;20229;-68
2022/12/02 04:18:36;;;;;;;4.63;4.22;;;17.30;65.30;;;;;;4957464;28;20181;-68
2022/12/02 04:21:02;;;;;;;4.90;4.40;;;17.30;65.30;;;;;;4973518;28;20272;-68
2022/12/02 04:23:28;;;;;;;4.50;4.10;;;17.30;65.30;;;;;;4973282;28;20303;-67
2022/12/02 04:25:54;;;;;;;4.93;4.43;;;17.30;65.20;;;;;;4956538;28;20272;-68
2022/12/02 04:28:19;;;;;;;4.85;3.95;;;17.30;65.20;;;;;;4957324;28;20204;-69
2022/12/02 04:30:45;;;;;;;4.47;4.07;;;17.30;65.20;;;;;;4956792;28;20220;-68
2022/12/02 04:33:11;;;;;;;4.45;3.97;;;17.30;65.30;;;;;;4957315;28;20221;-68
2022/12/02 04:35:36;;;;;;;4.40;4.00;;;17.30;65.20;;;;;;4957423;28;20188;-68
2022/12/02 04:38:02;;;;;;;3.95;3.55;;;17.30;65.20;;;;;;4957317;28;20305;-67
2022/12/02 04:40:28;;;;;;;4.72;4.28;;;17.30;65.20;;;;;;4974404;28;20192;-68
2022/12/02 04:42:55;;;;;;;4.03;3.63;;;17.30;65.20;;;;;;4957205;28;20198;-68
2022/12/02 04:45:21;;;;;;;4.55;4.18;;;17.30;65.40;;;;;;4972947;28;20198;-68
2022/12/02 04:47:46;;;;;;;4.72;4.22;;;17.30;65.30;;;;;;4956873;28;20174;-68
2022/12/02 04:50:12;;;;;;;4.40;4.00;;;17.30;65.40;;;;;;4956400;28;20272;-68
2022/12/02 04:52:38;;;;;;;4.63;4.00;;;17.30;65.30;;;;;;4956422;28;20190;-67
2022/12/02 04:55:04;;;;;;;4.60;4.20;;;17.30;65.30;;;;;;4972691;28;20182;-68
2022/12/02 04:57:30;;;;;;;4.32;3.92;;;17.30;65.30;;;;;;4972712;28;20190;-68
2022/12/02 04:59:55;;;;;;;4.10;3.72;;;17.30;65.30;;;;;;4956619;28;20667;-68
2022/12/02 05:02:21;;;;;;;4.07;3.78;;;17.30;65.20;;;;;;4973665;28;20185;-68
2022/12/02 05:04:47;;;;;;;4.38;3.97;;;17.30;65.30;;;;;;4972682;28;20214;-68
2022/12/02 05:07:13;;;;;;;4.10;3.70;;;17.30;65.30;;;;;;4956832;28;20646;-68
2022/12/02 05:09:38;;;;;;;3.78;3.47;;;17.30;65.30;;;;;;4956614;28;20208;-68
2022/12/02 05:12:04;;;;;;;4.43;3.97;;;17.30;66.10;;;;;;4956530;28;20189;-68
2022/12/02 05:14:30;;;;;;;4.20;3.80;;;17.30;65.20;;;;;;4956531;28;20217;-68
2022/12/02 05:16:56;;;;;;;4.15;3.75;;;17.30;65.20;;;;;;4972527;28;20189;-68
2022/12/02 05:19:21;;;;;;;4.47;4.07;;;17.30;65.20;;;;;;4956447;28;20189;-68
2022/12/02 05:21:47;;;;;;;4.22;3.83;;;17.30;65.20;;;;;;4956185;28;20201;-68
2022/12/02 05:24:13;;;;;;;4.07;3.72;;;17.30;65.20;;;;;;4973407;28;20209;-68
2022/12/02 05:26:38;;;;;;;4.55;4.15;;;17.30;65.20;;;;;;4955975;28;20189;-69
2022/12/02 05:29:05;;;;;;;3.75;3.45;;;17.30;65.20;;;;;;4956429;28;20189;-66
2022/12/02 05:31:31;;;;;;;4.40;4.00;;;17.30;66.00;;;;;;4956243;28;20199;-68
2022/12/02 05:33:57;;;;;;;3.85;3.50;;;17.30;65.20;;;;;;4956243;28;20298;-68
2022/12/02 05:36:23;;;;;;;3.90;3.60;;;17.30;65.20;;;;;;4973408;28;20182;-67
2022/12/02 05:38:48;;;;;;;4.13;3.70;;;17.30;65.20;;;;;;4960014;28;20189;-68
2022/12/02 05:41:14;;;;;;;3.40;3.10;;;17.30;65.20;;;;;;4977240;28;20193;-68
2022/12/02 05:43:42;;;;;;;4.00;3.60;;;17.30;65.20;;;;;;4960374;28;20209;-69
2022/12/02 05:46:19;;;;;;;3.90;3.58;;;17.30;65.20;;;;;;4960056;28;20189;-68
2022/12/02 05:48:47;;;;;;;3.88;3.53;;;17.30;65.20;;;;;;4957052;28;20187;-68
2022/12/02 05:51:17;;;;;;;4.10;3.70;;;17.30;65.20;;;;;;4975721;28;20275;-68
2022/12/02 05:53:46;;;;;;;3.92;3.63;;;17.30;65.20;;;;;;4960000;28;20206;-69
2022/12/02 05:56:34;;;;;;;3.83;3.53;;;17.30;65.20;;;;;;4959846;28;20240;-68
2022/12/02 05:59:07;;;;;;;3.67;3.38;;;17.30;65.20;;;;;;4976186;28;20229;-67
2022/12/02 06:01:38;;;;;;;3.92;3.63;;;17.30;65.20;;;;;;4975614;28;20170;-68
2022/12/02 06:04:23;;;;;;;4.57;3.92;;;17.30;65.20;;;;;;4976140;28;20256;-68
2022/12/02 06:06:54;;;;;;;3.97;3.63;;;17.40;65.30;;;;;;4992075;28;20185;-67
2022/12/02 06:09:30;;;;;;;4.28;3.88;;;17.30;65.10;;;;;;4943856;28;20213;-68
2022/12/02 06:12:00;;;;;;;4.32;3.95;;;17.30;65.20;;;;;;4944043;28;20191;-68
2022/12/02 06:14:34;;;;;;;3.60;3.30;;;17.30;65.20;;;;;;4975798;28;20320;-68
2022/12/02 06:17:09;;;;;;;4.13;3.75;;;17.30;65.20;;;;;;4958708;28;20253;-68
2022/12/02 06:19:53;;;;;;;3.65;3.35;;;17.30;65.20;;;;;;4972051;28;20193;-68
2022/12/02 06:22:28;;;;;;;3.95;3.65;;;17.30;65.30;;;;;;4958875;28;20217;-68
2022/12/02 06:24:58;;;;;;;3.78;3.47;;;17.30;65.20;;;;;;4974489;28;20220;-69
2022/12/02 06:27:26;;;;;;;3.95;3.65;;;17.30;65.20;;;;;;4975140;28;20200;-69
2022/12/02 06:30:00;;;;;;;3.97;3.67;;;17.30;65.10;;;;;;4974839;28;20229;-69
2022/12/02 06:32:41;;;;;;;4.38;3.90;;;17.30;65.20;;;;;;4974915;28;20201;-68
2022/12/02 06:35:29;;;;;;;3.70;3.40;;;17.30;65.20;;;;;;4958887;28;20209;-69
2022/12/02 06:37:59;;;;;;;4.43;4.03;;;17.30;65.20;;;;;;4975004;28;20194;-68
2022/12/02 06:40:30;;;;;;;4.22;3.83;;;17.30;65.20;;;;;;4958777;28;20196;-68
2022/12/02 06:43:18;;;;;;;3.83;3.53;;;17.30;65.20;;;;;;4974543;28;20276;-69
2022/12/02 06:45:44;;;;;;;4.30;3.80;;;17.30;65.20;;;;;;4958704;28;20198;-68
2022/12/02 06:48:30;;;;;;;3.75;3.45;;;17.30;65.10;;;;;;4975648;28;20189;-68
2022/12/02 06:51:09;;;;;;;3.75;3.45;;;17.30;65.00;;;;;;4957962;28;20643;-68
2022/12/02 06:53:39;;;;;;;3.92;3.53;;;17.30;65.10;;;;;;4958522;28;20267;-69
2022/12/02 06:56:30;;;;;;;4.15;3.35;;;17.30;65.10;;;;;;4975629;28;20265;-68
2022/12/02 06:59:04;;;;;;;3.80;3.50;;;17.30;65.10;;;;;;4974452;28;20204;-69
2022/12/02 07:01:37;;;;;;;4.10;3.72;;;17.30;65.20;;;;;;4958135;28;20200;-68
2022/12/02 07:04:09;;;;;;;4.13;3.72;;;17.30;65.20;;;;;;4968447;28;20206;-69
2022/12/02 07:06:48;;;;;;;3.60;3.30;;;17.30;65.20;;;;;;4923206;29;20285;-68
2022/12/02 07:09:45;;;;;;;4.32;3.92;;;17.30;65.10;;;;;;4923131;29;20206;-68
2022/12/02 07:12:18;;;;;;;4.32;3.92;;;17.30;65.20;;;;;;4923253;29;20210;-68
2022/12/02 07:14:58;;;;;;;4.38;3.97;;;17.30;65.10;;;;;;4938872;29;20221;-69
2022/12/02 07:17:35;;;;;;;4.22;3.45;;;17.30;65.20;;;;;;4939047;29;20191;-68
2022/12/02 07:20:08;;;;;;;4.60;4.20;;;17.30;65.20;;;;;;4955761;29;20192;-68
2022/12/02 07:22:49;;;;;;;4.05;3.60;;;17.30;65.20;;;;;;4939031;29;20201;-68
2022/12/02 07:25:15;;;;;;;4.25;3.85;;;17.30;65.20;;;;;;4923061;29;20666;-69
2022/12/02 07:27:44;;;;;;;4.45;3.95;;;17.30;65.10;;;;;;4938762;29;20210;-69
2022/12/02 07:30:33;;;;;;;4.22;3.83;;;17.30;65.10;;;;;;4938702;29;20237;-68
2022/12/02 07:33:00;;;;;;;4.28;3.75;;;17.30;65.10;;;;;;4954666;28;20218;-68
2022/12/02 07:35:26;;;;;;;4.03;3.63;;;17.30;65.10;;;;;;4954504;29;20190;-68
2022/12/02 07:37:52;;;;;;;4.28;3.88;;;17.30;65.10;;;;;;4955589;28;20182;-68
2022/12/02 07:40:19;;;;;;;4.10;3.70;;;17.30;65.10;;;;;;4938291;29;20203;-68
2022/12/02 07:42:45;;;;;;;4.32;3.92;;;17.30;65.00;;;;;;4938304;29;20191;-69
2022/12/02 07:45:18;;;;;;;4.07;3.70;;;17.30;65.00;;;;;;4938311;28;20190;-68
2022/12/02 07:47:44;;;;;;;4.20;3.80;;;17.30;65.10;;;;;;4922595;29;20286;-68
2022/12/02 07:50:14;;;;;;;4.35;3.95;;;17.30;65.10;;;;;;4953871;28;20214;-68
2022/12/02 07:52:39;;;;;;;4.28;3.88;;;17.30;65.10;;;;;;4966158;28;20580;-70
2022/12/02 07:55:07;;;;;;;4.25;3.85;;;17.30;65.20;;;;;;4956375;28;20213;-69
2022/12/02 07:57:33;;;;;;;4.10;3.70;;;17.30;65.10;;;;;;4974578;28;20558;-69
2022/12/02 07:59:59;;;;;;;4.50;4.00;;;17.30;65.10;;;;;;4941378;28;20192;-68
2022/12/02 08:02:25;;;;;;;3.67;3.38;;;17.30;65.10;;;;;;4941084;28;20263;-69
2022/12/02 08:04:50;;;;;;;3.78;3.47;;;17.30;65.00;;;;;;4941125;28;20220;-69
2022/12/02 08:07:16;;;;;;;3.97;3.58;;;17.30;65.10;;;;;;4973238;28;20186;-68
2022/12/02 08:09:42;;;;;;;4.43;3.80;;;17.30;65.00;;;;;;4972879;28;20210;-68
2022/12/02 08:12:08;;;;;;;4.85;3.78;;;17.30;65.00;;;;;;4941121;28;20192;-68
2022/12/02 08:14:34;;;;;;;3.78;3.38;;;17.30;65.80;;;;;;4974279;28;20209;-68
2022/12/02 08:16:59;;;;;;;3.97;3.63;;;17.30;65.00;;;;;;4973150;28;20192;-69
2022/12/02 08:19:25;;;;;;;4.38;3.97;;;17.30;65.00;;;;;;4957201;28;20182;-68
2022/12/02 08:21:51;;;;;;;4.05;3.65;;;17.30;65.00;;;;;;4940643;28;20189;-69
2022/12/02 08:24:17;;;;;;;3.85;3.45;;;17.30;65.00;;;;;;4940408;28;20205;-69
2022/12/02 08:26:43;;;;;;;4.07;3.67;;;17.30;65.00;;;;;;4972826;28;20189;-68
2022/12/02 08:29:09;;;;;;;3.60;3.30;;;17.30;65.00;;;;;;4956703;28;20575;-68
2022/12/02 08:31:35;;;;;;;4.70;3.88;;;17.30;65.00;;;;;;4956656;28;20200;-68
2022/12/02 08:34:01;;;;;;;3.75;3.38;;;17.30;65.00;;;;;;4972764;28;20202;-68
2022/12/02 08:36:27;;;;;;;3.92;3.60;;;17.30;65.00;;;;;;4956629;28;20567;-68
2022/12/02 08:38:53;;;;;;;4.35;3.65;;;17.30;65.00;;;;;;4973803;28;20252;-68
2022/12/02 08:41:19;;;;;;;4.25;3.85;;;17.30;65.00;;;;;;4940408;28;20654;-68
2022/12/02 08:43:45;;;;;;;3.78;3.40;;;17.30;65.00;;;;;;4972542;28;20248;-68
2022/12/02 08:46:11;;;;;;;3.75;3.45;;;17.30;65.00;;;;;;4972528;28;20189;-68
2022/12/02 08:48:37;;;;;;;3.63;3.33;;;17.30;65.00;;;;;;4973787;28;20182;-68
2022/12/02 08:51:03;;;;;;;3.58;3.28;;;17.30;65.00;;;;;;4955886;28;20595;-68
2022/12/02 08:53:28;;;;;;;4.43;3.10;;;17.30;65.00;;;;;;4956126;28;20220;-69
2022/12/02 08:55:54;;;;;;;3.50;3.20;;;17.30;65.00;;;;;;4972141;28;20256;-68
2022/12/02 08:58:20;;;;;;;4.03;3.67;;;17.30;65.00;;;;;;4956127;28;20278;-68
2022/12/02 09:00:46;;;;;;;3.50;3.20;;;17.30;64.90;;;;;;4964096;28;20186;-68
2022/12/02 09:03:11;;;;;;;4.13;3.53;;;17.30;64.90;;;;;;4954042;28;20248;-69
2022/12/02 09:05:40;;;;;;;3.35;3.05;;;17.30;65.00;;;;;;4936963;29;20198;-69
2022/12/02 09:08:06;;;;;;;3.97;3.58;;;17.30;64.90;;;;;;4920998;29;20254;-68
2022/12/02 09:10:32;;;;;;;3.75;3.28;;;17.30;64.90;;;;;;4952684;29;20249;-68
2022/12/02 09:15:52;;;;;;;4.28;3.28;;;17.30;64.90;;;;;;4996537;28;20210;-74
2022/12/02 09:18:18;;;;;;;3.40;3.10;;;17.30;64.90;;;;;;4991522;28;20189;-72
2022/12/02 09:20:44;;;;;;;3.47;3.17;;;17.30;64.90;;;;;;4988400;28;20186;-71
2022/12/02 09:23:09;;;;;;;3.58;3.10;;;17.30;64.80;;;;;;4971981;28;20255;-71
2022/12/02 09:25:35;;;;;;;3.50;3.20;;;17.30;64.90;;;;;;4972062;28;20192;-71
2022/12/02 09:28:01;;;;;;;3.42;3.13;;;17.30;64.90;;;;;;4972065;28;20193;-71
2022/12/02 09:30:27;;;;;;;3.83;3.38;;;17.30;64.90;;;;;;4971618;28;20225;-71
2022/12/02 09:32:52;;;;;;;3.40;3.10;;;17.30;64.90;;;;;;4973122;28;20236;-71
2022/12/02 09:35:18;;;;;;;3.67;3.38;;;17.30;64.90;;;;;;4988117;28;20236;-71
2022/12/02 09:37:44;;;;;;;3.88;3.42;;;17.30;64.90;;;;;;4971927;28;20190;-71
2022/12/02 09:40:10;;;;;;;3.00;2.70;;;17.30;64.90;;;;;;4987796;28;20198;-72
2022/12/02 09:42:36;;;;;;;3.38;3.08;;;17.30;64.90;;;;;;4988062;28;20284;-71
2022/12/02 09:45:03;;;;;;;3.83;3.10;;;17.30;64.90;;;;;;4987675;28;20311;-71
2022/12/02 09:47:30;;;;;;;4.00;3.60;;;17.30;64.90;;;;;;4972898;28;20235;-71
2022/12/02 09:49:56;;;;;;;3.45;3.13;;;17.40;65.00;;;;;;4971562;28;20213;-71
2022/12/02 09:52:25;;;;;;;3.45;3.15;;;17.30;64.90;;;;;;4987799;28;20196;-71
2022/12/02 09:54:58;;;;;;;3.97;3.63;;;17.30;64.90;;;;;;4985357;28;20230;-71
2022/12/02 09:57:31;;;;;;;3.22;2.92;;;17.40;64.90;;;;;;4952416;28;20241;-72
2022/12/02 10:00:00;;;;;;;3.80;3.50;;;17.40;64.90;;;;;;4952477;29;20198;-71
2022/12/02 10:02:45;;;;;;;3.45;3.15;;;17.30;64.70;;;;;;4968529;28;20679;-71
2022/12/02 10:05:25;;;;;;;3.90;3.50;;;17.30;64.80;;;;;;4936502;28;20210;-71
2022/12/02 10:07:56;;;;;;;3.30;3.00;;;17.30;64.80;;;;;;4952407;28;20311;-71
2022/12/02 10:10:42;;;;;;;3.40;3.10;;;17.30;64.80;;;;;;4968174;28;20214;-71
2022/12/02 10:13:17;;;;;;;3.40;3.10;;;17.30;64.80;;;;;;4952249;29;20202;-71
2022/12/02 10:15:43;;;;;;;3.42;3.13;;;17.30;64.80;;;;;;4968663;28;20190;-71
2022/12/02 10:18:18;;;;;;;3.95;3.55;;;17.40;64.90;;;;;;4955141;28;20196;-72
2022/12/02 10:20:44;;;;;;;3.08;2.78;;;17.30;64.70;;;;;;4971183;28;20185;-68
2022/12/02 10:23:15;;;;;;;3.92;3.63;;;17.30;64.80;;;;;;4956359;28;20199;-70
2022/12/02 10:25:48;;;;;;;3.30;3.00;;;17.40;64.80;;;;;;4991604;28;20197;-69
2022/12/02 10:28:30;;;;;;;3.58;3.28;;;17.30;64.70;;;;;;4975499;28;20223;-69
2022/12/02 10:31:18;;;;;;;3.60;3.30;;;17.40;64.70;;;;;;4991398;28;20257;-69
2022/12/02 10:33:52;;;;;;;3.55;3.25;;;17.30;64.60;;;;;;4972220;28;20202;-69
2022/12/02 10:36:40;;;;;;;3.70;3.05;;;17.40;64.80;;;;;;4983225;28;20181;-68
2022/12/02 10:39:32;;;;;;;3.05;2.83;;;17.40;64.70;;;;;;4955883;28;20190;-69
2022/12/02 10:42:03;;;;;;;3.67;3.38;;;17.40;64.70;;;;;;4955740;29;20214;-69
2022/12/02 10:44:32;;;;;;;3.42;3.08;;;17.40;64.70;;;;;;4955634;28;20219;-69
2022/12/02 10:47:19;;;;;;;3.10;2.80;;;17.40;64.70;;;;;;4972239;28;20241;-69
2022/12/02 10:49:55;;;;;;;3.22;2.92;;;17.30;64.60;;;;;;4971542;28;20220;-69
2022/12/02 10:52:34;;;;;;;3.38;3.03;;;17.30;64.70;;;;;;4978677;28;20185;-69
2022/12/02 10:55:01;;;;;;;3.20;2.90;;;17.30;64.60;;;;;;4974909;28;20224;-69
2022/12/02 10:57:32;;;;;;;3.17;2.60;;;17.40;64.60;;;;;;4991178;28;20192;-69
2022/12/02 11:00:12;;;;;;;3.15;2.85;;;17.40;64.60;;;;;;4958634;28;20276;-69
2022/12/02 11:03:03;;;;;;;3.63;2.75;;;17.40;64.60;;;;;;4974959;28;20182;-69
2022/12/02 11:05:34;;;;;;;3.47;3.17;;;17.40;64.60;;;;;;4990585;28;20654;-69
2022/12/02 11:08:05;;;;;;;4.07;3.20;;;17.40;65.40;;;;;;4990805;28;20178;-69
2022/12/02 11:10:38;;;;;;;3.30;3.00;;;17.40;64.50;;;;;;4974576;28;20228;-70
2022/12/02 11:13:12;;;;;;;3.60;3.30;;;17.30;64.40;;;;;;4958245;28;20185;-69
2022/12/02 11:16:06;;;;;;;3.10;2.80;;;17.40;64.50;;;;;;4975930;28;20166;-69
2022/12/02 11:18:38;;;;;;;3.28;2.97;;;17.40;64.60;;;;;;4972994;28;20181;-69
2022/12/02 11:21:06;;;;;;;3.22;2.92;;;17.40;64.60;;;;;;4974301;28;20189;-71
2022/12/02 11:23:33;;;;;;;3.13;2.88;;;17.40;64.50;;;;;;4959116;28;20296;-71
2022/12/02 11:26:05;;;;;;;3.38;3.08;;;17.40;64.50;;;;;;4974715;28;20212;-71
2022/12/02 11:28:35;;;;;;;3.30;3.00;;;17.40;64.50;;;;;;4958357;28;20189;-71
2022/12/02 11:31:10;;;;;;;3.35;3.05;;;17.40;64.40;;;;;;4974274;28;20205;-72
2022/12/02 11:34:00;;;;;;;3.28;3.00;;;17.40;64.50;;;;;;4970956;28;20581;-72
2022/12/02 11:36:33;;;;;;;3.20;2.90;;;17.40;65.40;;;;;;4990743;28;20186;-72
2022/12/02 11:39:03;;;;;;;3.20;2.90;;;17.40;64.50;;;;;;4990725;28;20166;-72
2022/12/02 11:41:47;;;;;;;3.92;3.15;;;17.40;64.50;;;;;;4990898;28;20657;-72
2022/12/02 11:44:24;;;;;;;3.40;3.05;;;17.40;64.50;;;;;;4975379;28;20748;-72
2022/12/02 11:46:54;;;;;;;3.22;2.92;;;17.40;64.50;;;;;;4987290;28;20209;-72
2022/12/02 11:49:35;;;;;;;3.28;2.97;;;17.40;64.40;;;;;;4966722;28;20190;-72
2022/12/02 11:52:10;;;;;;;2.80;2.60;;;17.40;64.40;;;;;;4976895;28;20182;-72
2022/12/02 11:55:04;;;;;;;3.47;3.10;;;17.40;64.40;;;;;;4958354;28;20251;-72
2022/12/02 11:57:47;;;;;;;3.10;2.90;;;17.40;64.50;;;;;;4974196;28;20606;-72
2022/12/02 12:00:27;;;;;;;3.20;2.90;;;17.40;64.60;;;;;;4973716;28;20182;-72
2022/12/02 12:03:12;;;;;;;3.25;2.95;;;17.40;64.60;;;;;;4973787;28;20197;-71
2022/12/02 12:05:41;;;;;;;3.10;2.75;;;17.40;64.50;;;;;;4973672;28;20620;-71
2022/12/02 12:08:06;;;;;;;3.72;3.05;;;17.40;64.60;;;;;;4957633;28;20215;-72
2022/12/02 12:10:38;;;;;;;3.70;3.40;;;17.40;64.40;;;;;;4980558;28;20210;-71
2022/12/02 12:13:23;;;;;;;3.05;2.70;;;17.40;64.50;;;;;;4964598;28;20182;-72
2022/12/02 12:16:00;;;;;;;4.25;3.35;;;17.40;64.40;;;;;;4965317;28;20241;-72
2022/12/02 12:18:39;;;;;;;3.15;2.88;;;17.40;64.40;;;;;;4955828;28;20190;-72
2022/12/02 12:21:07;;;;;;;3.72;3.00;;;17.40;64.40;;;;;;4953212;28;20276;-72
2022/12/02 12:23:43;;;;;;;3.40;3.10;;;17.40;64.50;;;;;;4989426;28;20281;-72
2022/12/02 12:26:33;;;;;;;3.38;3.08;;;17.40;64.40;;;;;;4973247;28;20197;-72
2022/12/02 12:29:04;;;;;;;2.97;2.67;;;17.40;64.50;;;;;;4973343;28;20178;-72
2022/12/02 12:31:30;;;;;;;3.38;3.05;;;17.40;64.50;;;;;;4957111;28;20221;-72
2022/12/02 12:33:55;;;;;;;3.65;3.28;;;17.40;64.50;;;;;;4973477;28;20256;-72
2022/12/02 12:36:21;;;;;;;3.22;2.92;;;17.40;64.50;;;;;;4957316;28;20240;-72
2022/12/02 12:38:47;;;;;;;3.20;2.90;;;17.40;64.40;;;;;;4989402;28;20189;-72
2022/12/02 12:41:13;;;;;;;3.28;2.97;;;17.40;64.40;;;;;;4972917;28;20194;-72
2022/12/02 12:43:39;;;;;;;3.20;2.85;;;17.40;64.50;;;;;;4989122;28;20210;-72
2022/12/02 12:46:05;;;;;;;3.13;2.78;;;17.40;64.50;;;;;;4973109;28;20204;-71
2022/12/02 12:48:30;;;;;;;3.15;2.75;;;17.40;64.40;;;;;;4988520;28;20193;-72
2022/12/02 12:50:56;;;;;;;3.83;3.22;;;17.40;64.40;;;;;;4972680;28;20224;-72
2022/12/02 12:53:22;;;;;;;3.53;3.22;;;17.40;64.40;;;;;;4956775;28;20189;-72
2022/12/02 12:55:48;;;;;;;3.30;3.00;;;17.40;64.50;;;;;;4988962;28;20692;-71
2022/12/02 12:58:14;;;;;;;3.22;2.85;;;17.40;64.40;;;;;;4972534;28;20189;-72
2022/12/02 13:00:40;;;;;;;3.45;3.15;;;17.40;64.50;;;;;;4989130;28;20272;-71
2022/12/02 13:03:06;;;;;;;3.38;3.08;;;17.40;64.50;;;;;;4973747;28;20184;-71
2022/12/02 13:05:31;;;;;;;3.42;2.83;;;17.30;64.40;;;;;;4956917;28;20193;-72
2022/12/02 13:07:57;;;;;;;3.17;2.88;;;17.40;64.50;;;;;;4988987;28;20240;-72